createdAt,value
2018-11-21T00:00:45.643Z,24.18
2018-11-21T00:03:14.280Z,22.40
2018-11-21T00:05:42.958Z,28.90
2018-11-21T00:08:11.616Z,24.12
2018-11-21T00:10:40.272Z,22.40
2018-11-21T00:13:08.971Z,26.20
2018-11-21T00:15:37.622Z,27.02
2018-11-21T00:18:06.498Z,18.57
2018-11-21T00:20:35.145Z,25.72
2018-11-21T00:23:03.825Z,29.27
2018-11-21T00:25:32.487Z,19.92
2018-11-21T00:28:01.329Z,26.07
2018-11-21T00:30:29.970Z,25.55
2018-11-21T00:32:58.681Z,22.15
2018-11-21T00:35:27.281Z,22.25
2018-11-21T00:37:55.921Z,25.75
2018-11-21T00:40:24.591Z,20.55
2018-11-21T00:42:53.277Z,28.42
2018-11-21T00:45:21.941Z,18.40
2018-11-21T00:47:50.563Z,22.30
2018-11-21T00:50:19.542Z,18.80
2018-11-21T00:52:48.182Z,18.75
2018-11-21T00:55:16.839Z,27.65
2018-11-21T00:57:45.525Z,25.72
2018-11-21T01:00:14.160Z,20.15
2018-11-21T01:02:42.826Z,20.72
2018-11-21T01:05:11.470Z,20.80
2018-11-21T01:07:40.155Z,18.42
2018-11-21T01:10:08.790Z,18.98
2018-11-21T01:12:37.471Z,18.45
2018-11-21T01:15:06.602Z,19.17
2018-11-21T01:17:35.245Z,22.42
2018-11-21T01:20:03.962Z,15.85
2018-11-21T01:22:32.661Z,18.40
2018-11-21T01:25:01.330Z,22.50
2018-11-21T01:27:29.959Z,15.32
2018-11-21T01:29:58.636Z,23.32
2018-11-21T01:32:27.267Z,16.25
2018-11-21T01:34:55.960Z,21.02
2018-11-21T01:37:24.603Z,23.02
2018-11-21T01:39:53.260Z,22.40
2018-11-21T01:42:21.912Z,17.12
2018-11-21T01:44:50.567Z,21.15
2018-11-21T01:47:19.239Z,18.10
2018-11-21T01:49:47.872Z,19.23
2018-11-21T01:52:16.555Z,19.27
2018-11-21T01:54:45.195Z,16.32
2018-11-21T01:57:13.862Z,18.37
2018-11-21T01:59:42.758Z,20.25
2018-11-21T02:02:11.592Z,17.55
2018-11-21T02:04:40.231Z,17.87
2018-11-21T02:07:08.892Z,18.50
2018-11-21T02:09:37.557Z,17.87
2018-11-21T02:12:06.458Z,44.70
2018-11-21T02:14:35.133Z,15.58
2018-11-21T02:17:03.811Z,18.95
2018-11-21T02:19:32.519Z,19.80
2018-11-21T02:22:01.167Z,15.93
2018-11-21T02:24:29.837Z,20.25
2018-11-21T02:26:58.496Z,24.15
2018-11-21T02:29:27.132Z,17.82
2018-11-21T02:31:56.017Z,24.15
2018-11-21T02:34:24.659Z,13.88
2018-11-21T02:36:53.407Z,14.55
2018-11-21T02:39:22.040Z,17.65
2018-11-21T02:41:50.716Z,16.45
2018-11-21T02:44:19.347Z,13.85
2018-11-21T02:46:48.063Z,19.48
2018-11-21T02:49:16.711Z,16.37
2018-11-21T02:51:45.349Z,14.15
2018-11-21T02:54:14.018Z,17.35
2018-11-21T02:57:21.389Z,17.70
2018-11-21T02:59:51.711Z,12.70
2018-11-21T03:02:20.392Z,17.30
2018-11-21T03:04:49.047Z,15.30
2018-11-21T03:07:17.715Z,17.17
2018-11-21T03:09:46.476Z,18.37
2018-11-21T03:12:15.118Z,12.18
2018-11-21T03:14:43.763Z,16.73
2018-11-21T03:17:12.447Z,20.55
2018-11-21T03:19:41.094Z,17.80
2018-11-21T03:22:09.737Z,18.20
2018-11-21T03:24:38.392Z,14.13
2018-11-21T03:27:07.069Z,12.88
2018-11-21T03:29:35.724Z,15.45
2018-11-21T03:32:04.769Z,16.15
2018-11-21T03:34:33.298Z,16.43
2018-11-21T03:37:01.982Z,14.40
2018-11-21T03:39:30.624Z,10.75
2018-11-21T03:41:59.263Z,13.78
2018-11-21T03:44:27.822Z,15.93
2018-11-21T03:46:56.383Z,13.27
2018-11-21T03:49:25.066Z,12.90
2018-11-21T03:51:53.600Z,15.67
2018-11-21T03:54:22.257Z,13.90
2018-11-21T03:56:50.893Z,19.27
2018-11-21T03:59:19.588Z,18.50
2018-11-21T04:01:48.133Z,14.10
2018-11-21T04:04:16.783Z,11.85
2018-11-21T04:06:45.436Z,13.40
2018-11-21T04:09:14.184Z,16.20
2018-11-21T04:11:42.832Z,14.80
2018-11-21T04:14:11.322Z,14.33
2018-11-21T04:16:39.998Z,13.10
2018-11-21T04:19:08.549Z,12.30
2018-11-21T04:21:37.467Z,15.10
2018-11-21T04:24:06.270Z,12.87
2018-11-21T04:26:34.917Z,15.40
2018-11-21T04:29:03.806Z,14.10
2018-11-21T04:31:32.348Z,11.73
2018-11-21T04:34:00.962Z,13.50
2018-11-21T04:36:29.521Z,13.50
2018-11-21T04:38:58.272Z,14.70
2018-11-21T04:41:26.858Z,14.40
2018-11-21T04:43:55.420Z,10.70
2018-11-21T04:46:24.036Z,14.03
2018-11-21T04:48:52.610Z,13.10
2018-11-21T04:51:21.241Z,12.83
2018-11-21T04:53:49.809Z,11.50
2018-11-21T04:56:18.428Z,16.00
2018-11-21T04:58:47.476Z,11.30
2018-11-21T05:01:16.118Z,12.47
2018-11-21T05:03:44.766Z,12.40
2018-11-21T05:06:13.238Z,12.10
2018-11-21T05:08:41.841Z,12.40
2018-11-21T05:11:10.410Z,12.90
2018-11-21T05:13:39.027Z,11.50
2018-11-21T05:16:07.926Z,11.57
2018-11-21T05:18:36.745Z,13.17
2018-11-21T05:21:05.484Z,13.00
2018-11-21T05:23:34.053Z,11.00
2018-11-21T05:26:02.693Z,10.67
2018-11-21T05:28:31.245Z,13.93
2018-11-21T05:30:59.941Z,12.83
2018-11-21T05:33:28.497Z,17.53
2018-11-21T05:35:57.088Z,11.07
2018-11-21T05:38:25.637Z,11.90
2018-11-21T05:40:54.217Z,12.73
2018-11-21T05:43:22.767Z,10.57
2018-11-21T05:45:51.584Z,12.50
2018-11-21T05:48:20.148Z,9.30
2018-11-21T05:50:48.777Z,12.80
2018-11-21T05:53:17.411Z,11.87
2018-11-21T05:55:45.929Z,13.90
2018-11-21T05:58:14.502Z,12.33
2018-11-21T06:00:49.002Z,14.33
2018-11-21T06:03:11.634Z,12.83
2018-11-21T06:05:40.177Z,11.10
2018-11-21T06:08:08.754Z,8.90
2018-11-21T06:10:37.335Z,11.30
2018-11-21T06:13:06.229Z,10.13
2018-11-21T06:15:34.786Z,11.30
2018-11-21T06:18:03.333Z,10.30
2018-11-21T06:20:31.995Z,12.40
2018-11-21T06:23:00.562Z,12.40
2018-11-21T06:25:29.219Z,12.40
2018-11-21T06:27:57.812Z,14.13
2018-11-21T06:30:26.626Z,12.63
2018-11-21T06:32:55.209Z,11.50
2018-11-21T06:35:23.769Z,14.30
2018-11-21T06:37:52.346Z,16.13
2018-11-21T06:40:20.913Z,13.27
2018-11-21T06:42:53.403Z,10.03
2018-11-21T06:45:23.739Z,13.43
2018-11-21T06:47:52.357Z,13.00
2018-11-21T06:50:21.069Z,12.03
2018-11-21T06:52:49.766Z,10.63
2018-11-21T06:55:18.352Z,13.50
2018-11-21T06:57:47.047Z,14.97
2018-11-21T07:00:15.640Z,10.97
2018-11-21T07:02:44.261Z,14.27
2018-11-21T07:05:12.921Z,13.27
2018-11-21T07:07:41.428Z,15.93
2018-11-21T07:10:12.747Z,15.23
2018-11-21T07:12:41.525Z,14.07
2018-11-21T07:15:10.288Z,14.10
2018-11-21T07:17:39.213Z,15.33
2018-11-21T07:20:10.056Z,12.37
2018-11-21T07:22:38.937Z,12.37
2018-11-21T07:25:13.417Z,12.87
2018-11-21T07:27:42.069Z,11.10
2018-11-21T07:30:12.856Z,12.33
2018-11-21T07:32:41.434Z,9.47
2018-11-21T07:35:10.358Z,11.00
2018-11-21T07:37:39.872Z,9.63
2018-11-21T07:40:10.305Z,14.20
2018-11-21T07:42:38.868Z,11.27
2018-11-21T07:45:09.732Z,10.30
2018-11-21T07:47:39.755Z,13.63
2018-11-21T07:50:14.201Z,10.20
2018-11-21T07:52:43.013Z,11.67
2018-11-21T07:55:12.317Z,14.13
2018-11-21T07:57:48.303Z,10.33
2018-11-21T08:01:16.246Z,8.90
2018-11-21T08:03:52.518Z,9.70
2018-11-21T08:06:33.999Z,8.70
2018-11-21T08:09:30.319Z,9.77
2018-11-21T08:12:26.914Z,12.00
2018-11-21T08:15:19.103Z,8.30
2018-11-21T08:18:06.743Z,9.87
2018-11-21T08:20:48.903Z,11.30
2018-11-21T08:23:36.521Z,11.10
2018-11-21T08:26:30.243Z,10.03
2018-11-21T08:28:58.853Z,13.33
2018-11-21T08:31:27.676Z,10.10
2018-11-21T08:33:56.284Z,10.57
2018-11-21T08:36:24.928Z,10.80
2018-11-21T08:38:53.507Z,11.10
2018-11-21T08:41:22.041Z,8.57
2018-11-21T08:43:50.638Z,12.03
2018-11-21T08:46:19.212Z,8.63
2018-11-21T08:48:47.836Z,12.07
2018-11-21T08:51:16.602Z,10.43
2018-11-21T08:53:45.079Z,14.27
2018-11-21T08:56:13.657Z,9.73
2018-11-21T08:58:42.197Z,8.83
2018-11-21T09:01:10.891Z,12.00
2018-11-21T09:03:39.379Z,10.57
2018-11-21T09:06:08.156Z,9.50
2018-11-21T09:08:36.713Z,10.40
2018-11-21T09:11:05.518Z,8.83
2018-11-21T09:13:34.131Z,11.63
2018-11-21T09:16:02.797Z,17.53
2018-11-21T09:18:31.368Z,9.00
2018-11-21T09:21:00.103Z,12.93
2018-11-21T09:23:28.644Z,9.50
2018-11-21T09:25:57.279Z,11.20
2018-11-21T09:28:25.870Z,9.37
2018-11-21T09:30:54.414Z,13.80
2018-11-21T09:33:22.962Z,9.90
2018-11-21T09:35:51.576Z,10.87
2018-11-21T09:38:20.187Z,12.40
2018-11-21T09:40:48.860Z,16.33
2018-11-21T09:43:17.405Z,8.50
2018-11-21T09:45:46.137Z,11.87
2018-11-21T09:48:14.681Z,12.33
2018-11-21T09:50:43.244Z,12.07
2018-11-21T09:53:11.899Z,11.23
2018-11-21T09:55:40.615Z,10.37
2018-11-21T09:58:09.049Z,10.30
2018-11-21T10:01:14.414Z,12.37
2018-11-21T10:03:43.014Z,13.33
2018-11-21T10:06:17.070Z,12.10
2018-11-21T10:08:56.300Z,10.20
2018-11-21T10:11:24.853Z,10.60
2018-11-21T10:13:53.592Z,13.77
2018-11-21T10:16:22.184Z,12.90
2018-11-21T10:18:52.457Z,10.23
2018-11-21T10:21:22.798Z,12.30
2018-11-21T10:23:51.370Z,15.20
2018-11-21T10:26:20.092Z,13.40
2018-11-21T10:28:49.341Z,13.13
2018-11-21T10:31:18.021Z,13.20
2018-11-21T10:33:46.620Z,14.00
2018-11-21T10:36:15.315Z,13.93
2018-11-21T10:38:43.926Z,11.70
2018-11-21T10:41:12.490Z,11.97
2018-11-21T10:43:41.138Z,10.10
2018-11-21T10:46:09.755Z,12.40
2018-11-21T10:48:38.479Z,14.17
2018-11-21T10:51:07.030Z,14.30
2018-11-21T10:53:35.617Z,12.70
2018-11-21T10:56:04.268Z,13.50
2018-11-21T10:58:32.829Z,14.33
2018-11-21T11:01:19.374Z,10.70
2018-11-21T11:03:56.216Z,11.20
2018-11-21T11:06:42.236Z,9.93
2018-11-21T11:09:31.983Z,22.17
2018-11-21T11:12:19.638Z,18.43
2018-11-21T11:15:11.433Z,19.50
2018-11-21T11:18:01.930Z,13.97
2018-11-21T11:20:48.126Z,15.70
2018-11-21T11:23:36.984Z,9.43
2018-11-21T11:26:23.670Z,11.73
2018-11-21T11:29:17.142Z,17.70
2018-11-21T11:32:07.273Z,13.80
2018-11-21T11:34:58.875Z,15.23
2018-11-21T11:37:52.195Z,11.53
2018-11-21T11:40:38.370Z,11.90
2018-11-21T11:43:28.781Z,13.80
2018-11-21T11:46:19.121Z,12.33
2018-11-21T11:49:06.716Z,12.27
2018-11-21T11:52:00.183Z,12.77
2018-11-21T11:55:06.290Z,12.83
2018-11-21T11:58:06.198Z,14.43
2018-11-21T12:00:57.587Z,11.10
2018-11-21T12:03:44.183Z,10.47
2018-11-21T12:06:38.031Z,10.40
2018-11-21T12:09:36.471Z,11.03
2018-11-21T12:12:24.186Z,11.50
2018-11-21T12:15:30.178Z,14.23
2018-11-21T12:18:16.367Z,15.83
2018-11-21T12:21:10.354Z,13.77
2018-11-21T12:23:56.721Z,15.63
2018-11-21T12:26:43.068Z,11.90
2018-11-21T12:29:37.287Z,14.80
2018-11-21T12:32:25.145Z,9.23
2018-11-21T12:35:12.758Z,10.97
2018-11-21T12:37:59.010Z,12.00
2018-11-21T12:40:55.353Z,28.63
2018-11-21T12:43:41.674Z,13.63
2018-11-21T12:46:47.409Z,11.33
2018-11-21T12:49:34.810Z,9.60
2018-11-21T12:52:28.445Z,11.93
2018-11-21T12:55:16.883Z,11.33
2018-11-21T12:57:55.731Z,11.83
2018-11-21T13:00:46.400Z,13.50
2018-11-21T13:03:32.842Z,13.73
2018-11-21T13:06:19.049Z,11.73
2018-11-21T13:09:05.197Z,12.53
2018-11-21T13:11:51.630Z,11.50
2018-11-21T13:14:42.069Z,18.33
2018-11-21T13:17:22.542Z,13.27
2018-11-21T13:20:09.871Z,13.07
2018-11-21T13:23:03.443Z,13.37
2018-11-21T13:25:47.434Z,11.63
2018-11-21T13:28:34.298Z,14.07
2018-11-21T13:31:20.348Z,12.27
2018-11-21T13:34:06.408Z,15.73
2018-11-21T13:36:59.646Z,16.57
2018-11-21T13:39:47.342Z,12.63
2018-11-21T13:42:30.444Z,12.43
2018-11-21T13:45:15.930Z,15.27
2018-11-21T13:48:17.384Z,16.30
